sensor_id;sensor_type;location;lat;lon;timestamp;P1;durP1;ratioP1;P2;durP2;ratioP2
18072;SDS011;9161;47.348;9.648;2023-06-04T00:04:31;8.00;;;5.70;;
18072;SDS011;9161;47.348;9.648;2023-06-04T00:09:34;9.77;;;5.93;;
18072;SDS011;9161;47.348;9.648;2023-06-04T00:14:36;10.37;;;5.90;;
18072;SDS011;9161;47.348;9.648;2023-06-04T00:19:41;10.10;;;5.83;;
18072;SDS011;9161;47.348;9.648;2023-06-04T00:24:43;8.97;;;5.50;;
18072;SDS011;9161;47.348;9.648;2023-06-04T00:29:47;10.90;;;5.40;;
18072;SDS011;9161;47.348;9.648;2023-06-04T00:34:51;10.77;;;6.07;;
18072;SDS011;9161;47.348;9.648;2023-06-04T00:39:54;10.20;;;5.67;;
18072;SDS011;9161;47.348;9.648;2023-06-04T00:44:56;7.73;;;5.27;;
18072;SDS011;9161;47.348;9.648;2023-06-04T00:49:59;8.97;;;5.60;;
18072;SDS011;9161;47.348;9.648;2023-06-04T00:55:03;8.93;;;6.07;;
18072;SDS011;9161;47.348;9.648;2023-06-04T01:00:10;9.37;;;6.00;;
18072;SDS011;9161;47.348;9.648;2023-06-04T01:05:21;9.70;;;5.90;;
18072;SDS011;9161;47.348;9.648;2023-06-04T01:10:33;12.50;;;6.20;;
18072;SDS011;9161;47.348;9.648;2023-06-04T01:15:35;8.87;;;5.70;;
18072;SDS011;9161;47.348;9.648;2023-06-04T01:20:40;8.33;;;5.57;;
18072;SDS011;9161;47.348;9.648;2023-06-04T01:25:44;10.73;;;5.70;;
18072;SDS011;9161;47.348;9.648;2023-06-04T01:30:49;10.03;;;5.80;;
18072;SDS011;9161;47.348;9.648;2023-06-04T01:35:56;10.03;;;5.80;;
18072;SDS011;9161;47.348;9.648;2023-06-04T01:41:04;11.20;;;5.93;;
18072;SDS011;9161;47.348;9.648;2023-06-04T01:46:07;9.77;;;6.23;;
18072;SDS011;9161;47.348;9.648;2023-06-04T01:51:10;10.33;;;6.27;;
18072;SDS011;9161;47.348;9.648;2023-06-04T01:56:13;12.80;;;5.93;;
18072;SDS011;9161;47.348;9.648;2023-06-04T02:01:15;9.97;;;5.73;;
18072;SDS011;9161;47.348;9.648;2023-06-04T02:06:18;8.00;;;5.60;;
18072;SDS011;9161;47.348;9.648;2023-06-04T02:11:21;9.37;;;5.73;;
18072;SDS011;9161;47.348;9.648;2023-06-04T02:16:23;8.77;;;5.73;;
18072;SDS011;9161;47.348;9.648;2023-06-04T02:21:29;9.60;;;5.90;;
18072;SDS011;9161;47.348;9.648;2023-06-04T02:26:31;11.93;;;5.37;;
18072;SDS011;9161;47.348;9.648;2023-06-04T02:31:33;12.60;;;5.90;;
18072;SDS011;9161;47.348;9.648;2023-06-04T02:36:37;10.60;;;6.63;;
18072;SDS011;9161;47.348;9.648;2023-06-04T02:41:39;8.70;;;5.63;;
18072;SDS011;9161;47.348;9.648;2023-06-04T02:46:41;10.70;;;6.20;;
18072;SDS011;9161;47.348;9.648;2023-06-04T02:51:45;8.73;;;5.57;;
18072;SDS011;9161;47.348;9.648;2023-06-04T02:56:47;12.13;;;6.00;;
18072;SDS011;9161;47.348;9.648;2023-06-04T03:01:51;11.23;;;6.23;;
18072;SDS011;9161;47.348;9.648;2023-06-04T03:06:55;10.33;;;6.20;;
18072;SDS011;9161;47.348;9.648;2023-06-04T03:11:59;9.50;;;5.80;;
18072;SDS011;9161;47.348;9.648;2023-06-04T03:17:02;13.37;;;6.27;;
18072;SDS011;9161;47.348;9.648;2023-06-04T03:22:12;10.33;;;5.43;;
18072;SDS011;9161;47.348;9.648;2023-06-04T03:27:14;7.63;;;4.90;;
18072;SDS011;9161;47.348;9.648;2023-06-04T03:32:16;12.90;;;5.87;;
18072;SDS011;9161;47.348;9.648;2023-06-04T03:37:20;8.60;;;5.27;;
18072;SDS011;9161;47.348;9.648;2023-06-04T03:42:22;8.60;;;5.73;;
18072;SDS011;9161;47.348;9.648;2023-06-04T03:47:25;10.03;;;5.67;;
18072;SDS011;9161;47.348;9.648;2023-06-04T03:52:28;8.33;;;5.40;;
18072;SDS011;9161;47.348;9.648;2023-06-04T03:57:31;33.57;;;6.53;;
18072;SDS011;9161;47.348;9.648;2023-06-04T04:02:33;11.70;;;6.63;;
18072;SDS011;9161;47.348;9.648;2023-06-04T04:07:37;12.37;;;5.97;;
18072;SDS011;9161;47.348;9.648;2023-06-04T04:12:39;12.07;;;6.60;;
18072;SDS011;9161;47.348;9.648;2023-06-04T04:17:42;13.47;;;7.10;;
18072;SDS011;9161;47.348;9.648;2023-06-04T04:22:45;11.20;;;6.53;;
18072;SDS011;9161;47.348;9.648;2023-06-04T04:27:50;12.43;;;6.37;;
18072;SDS011;9161;47.348;9.648;2023-06-04T04:32:52;13.60;;;7.00;;
18072;SDS011;9161;47.348;9.648;2023-06-04T04:37:57;11.07;;;7.17;;
18072;SDS011;9161;47.348;9.648;2023-06-04T04:43:03;12.13;;;7.10;;
18072;SDS011;9161;47.348;9.648;2023-06-04T04:48:05;11.90;;;6.40;;
18072;SDS011;9161;47.348;9.648;2023-06-04T04:53:08;8.70;;;5.70;;
18072;SDS011;9161;47.348;9.648;2023-06-04T04:58:11;12.20;;;6.67;;
18072;SDS011;9161;47.348;9.648;2023-06-04T05:03:14;10.97;;;6.77;;
18072;SDS011;9161;47.348;9.648;2023-06-04T05:08:17;10.30;;;7.00;;
18072;SDS011;9161;47.348;9.648;2023-06-04T05:13:19;25.77;;;7.90;;
18072;SDS011;9161;47.348;9.648;2023-06-04T05:18:23;15.03;;;6.93;;
18072;SDS011;9161;47.348;9.648;2023-06-04T05:23:30;118.07;;;13.37;;
18072;SDS011;9161;47.348;9.648;2023-06-04T05:28:34;20.87;;;8.33;;
18072;SDS011;9161;47.348;9.648;2023-06-04T05:33:36;20.70;;;7.63;;
18072;SDS011;9161;47.348;9.648;2023-06-04T05:38:40;47.37;;;9.47;;
18072;SDS011;9161;47.348;9.648;2023-06-04T05:43:42;24.40;;;7.93;;
18072;SDS011;9161;47.348;9.648;2023-06-04T05:48:45;14.43;;;7.67;;
18072;SDS011;9161;47.348;9.648;2023-06-04T05:53:49;11.40;;;6.80;;
18072;SDS011;9161;47.348;9.648;2023-06-04T05:58:51;11.10;;;7.00;;
18072;SDS011;9161;47.348;9.648;2023-06-04T06:03:54;14.97;;;7.53;;
18072;SDS011;9161;47.348;9.648;2023-06-04T06:08:58;9.23;;;6.77;;
18072;SDS011;9161;47.348;9.648;2023-06-04T06:14:00;13.80;;;7.30;;
18072;SDS011;9161;47.348;9.648;2023-06-04T06:19:03;11.73;;;7.00;;
18072;SDS011;9161;47.348;9.648;2023-06-04T06:24:06;12.07;;;6.60;;
18072;SDS011;9161;47.348;9.648;2023-06-04T06:29:08;16.30;;;7.07;;
18072;SDS011;9161;47.348;9.648;2023-06-04T06:34:11;11.02;;;6.85;;
18072;SDS011;9161;47.348;9.648;2023-06-04T06:39:14;9.98;;;5.78;;
18072;SDS011;9161;47.348;9.648;2023-06-04T06:44:16;8.25;;;5.65;;
18072;SDS011;9161;47.348;9.648;2023-06-04T06:49:19;9.65;;;5.20;;
18072;SDS011;9161;47.348;9.648;2023-06-04T06:54:22;8.25;;;5.10;;
18072;SDS011;9161;47.348;9.648;2023-06-04T06:59:24;7.03;;;5.10;;
18072;SDS011;9161;47.348;9.648;2023-06-04T07:04:27;9.35;;;5.28;;
18072;SDS011;9161;47.348;9.648;2023-06-04T07:09:31;17.15;;;6.03;;
18072;SDS011;9161;47.348;9.648;2023-06-04T07:14:33;9.68;;;5.30;;
18072;SDS011;9161;47.348;9.648;2023-06-04T07:19:35;14.73;;;6.00;;
18072;SDS011;9161;47.348;9.648;2023-06-04T07:24:39;13.27;;;6.13;;
18072;SDS011;9161;47.348;9.648;2023-06-04T07:29:42;13.85;;;5.28;;
18072;SDS011;9161;47.348;9.648;2023-06-04T07:34:45;9.90;;;5.65;;
18072;SDS011;9161;47.348;9.648;2023-06-04T07:39:49;11.10;;;5.88;;
18072;SDS011;9161;47.348;9.648;2023-06-04T07:44:51;10.40;;;5.65;;
18072;SDS011;9161;47.348;9.648;2023-06-04T07:49:53;17.52;;;6.07;;
18072;SDS011;9161;47.348;9.648;2023-06-04T07:55:04;10.10;;;5.70;;
18072;SDS011;9161;47.348;9.648;2023-06-04T08:00:09;10.20;;;5.45;;
18072;SDS011;9161;47.348;9.648;2023-06-04T08:05:12;22.75;;;5.45;;
18072;SDS011;9161;47.348;9.648;2023-06-04T08:10:16;12.60;;;5.35;;
18072;SDS011;9161;47.348;9.648;2023-06-04T08:15:18;9.23;;;5.07;;
18072;SDS011;9161;47.348;9.648;2023-06-04T08:20:20;11.02;;;5.93;;
18072;SDS011;9161;47.348;9.648;2023-06-04T08:25:27;11.05;;;5.72;;
18072;SDS011;9161;47.348;9.648;2023-06-04T08:30:30;8.30;;;4.97;;
18072;SDS011;9161;47.348;9.648;2023-06-04T08:35:36;9.65;;;5.38;;
18072;SDS011;9161;47.348;9.648;2023-06-04T08:40:39;14.65;;;5.10;;
18072;SDS011;9161;47.348;9.648;2023-06-04T08:45:43;18.80;;;6.47;;
18072;SDS011;9161;47.348;9.648;2023-06-04T08:50:51;12.75;;;5.93;;
18072;SDS011;9161;47.348;9.648;2023-06-04T08:55:57;8.63;;;5.72;;
18072;SDS011;9161;47.348;9.648;2023-06-04T09:01:00;11.27;;;5.88;;
18072;SDS011;9161;47.348;9.648;2023-06-04T09:06:03;15.60;;;9.70;;
18072;SDS011;9161;47.348;9.648;2023-06-04T09:11:10;10.15;;;6.13;;
18072;SDS011;9161;47.348;9.648;2023-06-04T09:16:14;12.18;;;5.93;;
18072;SDS011;9161;47.348;9.648;2023-06-04T09:21:18;6.82;;;5.05;;
18072;SDS011;9161;47.348;9.648;2023-06-04T09:26:23;21.83;;;6.15;;
18072;SDS011;9161;47.348;9.648;2023-06-04T09:31:26;12.68;;;5.85;;
18072;SDS011;9161;47.348;9.648;2023-06-04T09:36:32;10.93;;;5.90;;
18072;SDS011;9161;47.348;9.648;2023-06-04T09:41:36;12.68;;;6.72;;
18072;SDS011;9161;47.348;9.648;2023-06-04T09:46:39;8.82;;;5.85;;
18072;SDS011;9161;47.348;9.648;2023-06-04T09:51:48;9.38;;;5.53;;
18072;SDS011;9161;47.348;9.648;2023-06-04T09:56:52;10.45;;;5.43;;
18072;SDS011;9161;47.348;9.648;2023-06-04T10:01:54;15.18;;;5.60;;
18072;SDS011;9161;47.348;9.648;2023-06-04T10:06:56;13.82;;;5.80;;
18072;SDS011;9161;47.348;9.648;2023-06-04T10:12:01;18.13;;;6.90;;
18072;SDS011;9161;47.348;9.648;2023-06-04T10:17:03;10.55;;;5.72;;
18072;SDS011;9161;47.348;9.648;2023-06-04T10:22:07;9.90;;;5.70;;
18072;SDS011;9161;47.348;9.648;2023-06-04T10:27:11;7.97;;;5.95;;
18072;SDS011;9161;47.348;9.648;2023-06-04T10:32:17;12.38;;;6.32;;
18072;SDS011;9161;47.348;9.648;2023-06-04T10:37:20;9.68;;;5.95;;
18072;SDS011;9161;47.348;9.648;2023-06-04T10:42:24;9.32;;;5.60;;
18072;SDS011;9161;47.348;9.648;2023-06-04T10:47:28;15.80;;;6.22;;
18072;SDS011;9161;47.348;9.648;2023-06-04T10:52:32;8.55;;;5.63;;
18072;SDS011;9161;47.348;9.648;2023-06-04T10:57:36;9.27;;;5.45;;
18072;SDS011;9161;47.348;9.648;2023-06-04T11:02:48;19.70;;;6.10;;
18072;SDS011;9161;47.348;9.648;2023-06-04T11:07:55;7.82;;;5.18;;
18072;SDS011;9161;47.348;9.648;2023-06-04T11:12:59;11.57;;;5.28;;
18072;SDS011;9161;47.348;9.648;2023-06-04T11:18:01;7.20;;;4.93;;
18072;SDS011;9161;47.348;9.648;2023-06-04T11:23:04;8.27;;;4.53;;
18072;SDS011;9161;47.348;9.648;2023-06-04T11:28:08;10.70;;;5.00;;
18072;SDS011;9161;47.348;9.648;2023-06-04T11:33:15;9.10;;;4.45;;
18072;SDS011;9161;47.348;9.648;2023-06-04T11:38:17;9.55;;;4.60;;
18072;SDS011;9161;47.348;9.648;2023-06-04T11:43:21;12.15;;;5.22;;
18072;SDS011;9161;47.348;9.648;2023-06-04T11:48:24;10.38;;;4.90;;
18072;SDS011;9161;47.348;9.648;2023-06-04T11:53:28;9.35;;;4.78;;
18072;SDS011;9161;47.348;9.648;2023-06-04T11:58:32;6.63;;;4.00;;
18072;SDS011;9161;47.348;9.648;2023-06-04T12:03:35;19.30;;;5.18;;
18072;SDS011;9161;47.348;9.648;2023-06-04T12:08:48;8.48;;;4.43;;
18072;SDS011;9161;47.348;9.648;2023-06-04T12:13:52;13.02;;;4.35;;
18072;SDS011;9161;47.348;9.648;2023-06-04T12:19:05;24.98;;;4.97;;
18072;SDS011;9161;47.348;9.648;2023-06-04T12:24:09;14.18;;;4.82;;
18072;SDS011;9161;47.348;9.648;2023-06-04T12:29:14;7.28;;;4.13;;
18072;SDS011;9161;47.348;9.648;2023-06-04T12:34:20;12.07;;;4.47;;
18072;SDS011;9161;47.348;9.648;2023-06-04T12:39:23;8.80;;;4.10;;
18072;SDS011;9161;47.348;9.648;2023-06-04T12:44:26;15.23;;;4.63;;
18072;SDS011;9161;47.348;9.648;2023-06-04T12:49:28;20.70;;;5.15;;
18072;SDS011;9161;47.348;9.648;2023-06-04T12:54:31;16.00;;;4.75;;
18072;SDS011;9161;47.348;9.648;2023-06-04T12:59:35;11.07;;;4.20;;
18072;SDS011;9161;47.348;9.648;2023-06-04T13:04:37;9.25;;;4.60;;
18072;SDS011;9161;47.348;9.648;2023-06-04T13:09:41;10.57;;;4.30;;
18072;SDS011;9161;47.348;9.648;2023-06-04T13:14:45;30.83;;;5.38;;
18072;SDS011;9161;47.348;9.648;2023-06-04T13:19:47;11.40;;;4.78;;
18072;SDS011;9161;47.348;9.648;2023-06-04T13:24:49;7.85;;;4.07;;
18072;SDS011;9161;47.348;9.648;2023-06-04T13:29:53;6.30;;;4.32;;
18072;SDS011;9161;47.348;9.648;2023-06-04T13:34:55;9.07;;;4.78;;
18072;SDS011;9161;47.348;9.648;2023-06-04T13:39:58;6.97;;;4.43;;
18072;SDS011;9161;47.348;9.648;2023-06-04T13:45:02;7.28;;;4.28;;
18072;SDS011;9161;47.348;9.648;2023-06-04T13:50:05;6.93;;;3.95;;
18072;SDS011;9161;47.348;9.648;2023-06-04T13:55:08;3.50;;;2.67;;
18072;SDS011;9161;47.348;9.648;2023-06-04T14:00:13;4.97;;;3.13;;
18072;SDS011;9161;47.348;9.648;2023-06-04T14:05:15;7.20;;;3.40;;
18072;SDS011;9161;47.348;9.648;2023-06-04T14:10:18;5.10;;;2.63;;
18072;SDS011;9161;47.348;9.648;2023-06-04T14:15:21;8.02;;;2.90;;
18072;SDS011;9161;47.348;9.648;2023-06-04T14:20:23;4.65;;;2.60;;
18072;SDS011;9161;47.348;9.648;2023-06-04T14:25:26;5.30;;;3.38;;
18072;SDS011;9161;47.348;9.648;2023-06-04T14:30:30;4.82;;;2.97;;
18072;SDS011;9161;47.348;9.648;2023-06-04T14:35:32;9.90;;;3.50;;
18072;SDS011;9161;47.348;9.648;2023-06-04T14:40:34;4.93;;;3.05;;
18072;SDS011;9161;47.348;9.648;2023-06-04T14:45:39;4.90;;;2.63;;
18072;SDS011;9161;47.348;9.648;2023-06-04T14:50:42;3.30;;;2.63;;
18072;SDS011;9161;47.348;9.648;2023-06-04T14:55:44;5.03;;;3.00;;
18072;SDS011;9161;47.348;9.648;2023-06-04T15:00:49;5.07;;;3.03;;
18072;SDS011;9161;47.348;9.648;2023-06-04T15:05:51;6.07;;;2.85;;
18072;SDS011;9161;47.348;9.648;2023-06-04T15:11:02;13.27;;;5.95;;
18072;SDS011;9161;47.348;9.648;2023-06-04T15:16:06;6.43;;;3.35;;
18072;SDS011;9161;47.348;9.648;2023-06-04T15:21:08;14.55;;;7.22;;
18072;SDS011;9161;47.348;9.648;2023-06-04T15:26:10;2.97;;;2.42;;
18072;SDS011;9161;47.348;9.648;2023-06-04T15:31:14;3.05;;;1.77;;
18072;SDS011;9161;47.348;9.648;2023-06-04T15:36:17;4.30;;;2.83;;
18072;SDS011;9161;47.348;9.648;2023-06-04T15:41:19;3.35;;;2.17;;
18072;SDS011;9161;47.348;9.648;2023-06-04T15:46:25;5.75;;;3.42;;
18072;SDS011;9161;47.348;9.648;2023-06-04T15:51:27;3.35;;;2.08;;
18072;SDS011;9161;47.348;9.648;2023-06-04T15:56:29;4.13;;;2.38;;
18072;SDS011;9161;47.348;9.648;2023-06-04T16:01:33;3.58;;;2.63;;
18072;SDS011;9161;47.348;9.648;2023-06-04T16:06:35;3.00;;;2.17;;
18072;SDS011;9161;47.348;9.648;2023-06-04T16:11:38;4.05;;;2.35;;
18072;SDS011;9161;47.348;9.648;2023-06-04T16:16:43;3.67;;;1.95;;
18072;SDS011;9161;47.348;9.648;2023-06-04T16:21:47;3.58;;;2.03;;
18072;SDS011;9161;47.348;9.648;2023-06-04T16:26:49;6.50;;;2.30;;
18072;SDS011;9161;47.348;9.648;2023-06-04T16:31:54;4.18;;;2.08;;
18072;SDS011;9161;47.348;9.648;2023-06-04T16:36:56;2.30;;;1.67;;
18072;SDS011;9161;47.348;9.648;2023-06-04T16:41:59;4.43;;;2.50;;
18072;SDS011;9161;47.348;9.648;2023-06-04T16:47:05;3.25;;;1.90;;
18072;SDS011;9161;47.348;9.648;2023-06-04T16:52:08;5.82;;;2.80;;
18072;SDS011;9161;47.348;9.648;2023-06-04T16:57:11;2.55;;;2.00;;
18072;SDS011;9161;47.348;9.648;2023-06-04T17:02:15;3.13;;;2.33;;
18072;SDS011;9161;47.348;9.648;2023-06-04T17:07:18;7.65;;;2.05;;
18072;SDS011;9161;47.348;9.648;2023-06-04T17:12:21;4.45;;;2.13;;
18072;SDS011;9161;47.348;9.648;2023-06-04T17:17:25;3.80;;;2.38;;
18072;SDS011;9161;47.348;9.648;2023-06-04T17:22:28;2.80;;;1.75;;
18072;SDS011;9161;47.348;9.648;2023-06-04T17:27:31;3.75;;;1.67;;
18072;SDS011;9161;47.348;9.648;2023-06-04T17:32:35;3.38;;;2.15;;
18072;SDS011;9161;47.348;9.648;2023-06-04T17:37:38;9.88;;;2.75;;
18072;SDS011;9161;47.348;9.648;2023-06-04T17:42:41;5.38;;;2.20;;
18072;SDS011;9161;47.348;9.648;2023-06-04T17:47:49;8.50;;;2.50;;
18072;SDS011;9161;47.348;9.648;2023-06-04T17:52:52;4.30;;;2.22;;
18072;SDS011;9161;47.348;9.648;2023-06-04T17:57:58;4.38;;;2.42;;
18072;SDS011;9161;47.348;9.648;2023-06-04T18:03:02;3.90;;;2.40;;
18072;SDS011;9161;47.348;9.648;2023-06-04T18:08:06;9.10;;;5.28;;
18072;SDS011;9161;47.348;9.648;2023-06-04T18:13:13;3.72;;;2.63;;
18072;SDS011;9161;47.348;9.648;2023-06-04T18:18:18;3.55;;;2.25;;
18072;SDS011;9161;47.348;9.648;2023-06-04T18:23:21;7.15;;;3.67;;
18072;SDS011;9161;47.348;9.648;2023-06-04T18:28:24;2.65;;;2.17;;
18072;SDS011;9161;47.348;9.648;2023-06-04T18:33:29;3.92;;;2.08;;
18072;SDS011;9161;47.348;9.648;2023-06-04T18:38:33;4.47;;;2.47;;
18072;SDS011;9161;47.348;9.648;2023-06-04T18:43:38;4.05;;;2.22;;
18072;SDS011;9161;47.348;9.648;2023-06-04T18:48:43;6.90;;;2.65;;
18072;SDS011;9161;47.348;9.648;2023-06-04T18:53:48;5.10;;;3.50;;
18072;SDS011;9161;47.348;9.648;2023-06-04T18:58:52;4.65;;;2.78;;
18072;SDS011;9161;47.348;9.648;2023-06-04T19:03:57;3.80;;;2.65;;
18072;SDS011;9161;47.348;9.648;2023-06-04T19:09:01;5.55;;;3.13;;
18072;SDS011;9161;47.348;9.648;2023-06-04T19:14:04;6.50;;;2.80;;
18072;SDS011;9161;47.348;9.648;2023-06-04T19:19:09;4.65;;;2.70;;
18072;SDS011;9161;47.348;9.648;2023-06-04T19:24:12;7.22;;;3.10;;
18072;SDS011;9161;47.348;9.648;2023-06-04T19:29:15;4.18;;;3.20;;
18072;SDS011;9161;47.348;9.648;2023-06-04T19:34:21;6.25;;;3.22;;
18072;SDS011;9161;47.348;9.648;2023-06-04T19:39:24;4.47;;;3.10;;
18072;SDS011;9161;47.348;9.648;2023-06-04T19:44:27;6.50;;;3.30;;
18072;SDS011;9161;47.348;9.648;2023-06-04T19:49:32;3.60;;;2.70;;
18072;SDS011;9161;47.348;9.648;2023-06-04T19:54:36;6.03;;;3.00;;
18072;SDS011;9161;47.348;9.648;2023-06-04T19:59:39;5.23;;;2.97;;
18072;SDS011;9161;47.348;9.648;2023-06-04T20:04:43;9.10;;;3.67;;
18072;SDS011;9161;47.348;9.648;2023-06-04T20:09:46;8.43;;;3.40;;
18072;SDS011;9161;47.348;9.648;2023-06-04T20:14:49;5.70;;;2.80;;
18072;SDS011;9161;47.348;9.648;2023-06-04T20:19:54;8.40;;;3.67;;
18072;SDS011;9161;47.348;9.648;2023-06-04T20:24:58;8.30;;;4.00;;
18072;SDS011;9161;47.348;9.648;2023-06-04T20:30:02;10.57;;;3.87;;
18072;SDS011;9161;47.348;9.648;2023-06-04T20:35:07;5.43;;;3.50;;
18072;SDS011;9161;47.348;9.648;2023-06-04T20:40:11;4.50;;;3.43;;
18072;SDS011;9161;47.348;9.648;2023-06-04T20:45:14;5.13;;;3.30;;
18072;SDS011;9161;47.348;9.648;2023-06-04T20:50:18;6.07;;;3.73;;
18072;SDS011;9161;47.348;9.648;2023-06-04T20:55:21;4.80;;;3.30;;
18072;SDS011;9161;47.348;9.648;2023-06-04T21:00:23;5.63;;;3.70;;
18072;SDS011;9161;47.348;9.648;2023-06-04T21:05:28;5.27;;;3.30;;
18072;SDS011;9161;47.348;9.648;2023-06-04T21:10:31;4.97;;;3.40;;
18072;SDS011;9161;47.348;9.648;2023-06-04T21:15:34;6.00;;;3.70;;
18072;SDS011;9161;47.348;9.648;2023-06-04T21:20:37;6.40;;;3.20;;
18072;SDS011;9161;47.348;9.648;2023-06-04T21:25:39;4.77;;;3.30;;
18072;SDS011;9161;47.348;9.648;2023-06-04T21:30:42;6.37;;;3.40;;
18072;SDS011;9161;47.348;9.648;2023-06-04T21:35:45;8.47;;;2.97;;
18072;SDS011;9161;47.348;9.648;2023-06-04T21:40:48;12.67;;;3.47;;
18072;SDS011;9161;47.348;9.648;2023-06-04T21:45:54;8.60;;;3.50;;
18072;SDS011;9161;47.348;9.648;2023-06-04T21:50:57;8.33;;;3.73;;
18072;SDS011;9161;47.348;9.648;2023-06-04T21:56:00;5.40;;;3.40;;
18072;SDS011;9161;47.348;9.648;2023-06-04T22:01:02;8.53;;;3.00;;
18072;SDS011;9161;47.348;9.648;2023-06-04T22:06:06;6.53;;;3.50;;
18072;SDS011;9161;47.348;9.648;2023-06-04T22:11:10;7.53;;;3.60;;
18072;SDS011;9161;47.348;9.648;2023-06-04T22:16:12;5.03;;;3.13;;
18072;SDS011;9161;47.348;9.648;2023-06-04T22:21:17;5.50;;;3.23;;
18072;SDS011;9161;47.348;9.648;2023-06-04T22:26:19;7.67;;;3.03;;
18072;SDS011;9161;47.348;9.648;2023-06-04T22:31:37;7.07;;;3.43;;
18072;SDS011;9161;47.348;9.648;2023-06-04T22:36:40;5.83;;;3.03;;
18072;SDS011;9161;47.348;9.648;2023-06-04T22:41:44;7.37;;;3.90;;
18072;SDS011;9161;47.348;9.648;2023-06-04T22:46:46;8.87;;;3.77;;
18072;SDS011;9161;47.348;9.648;2023-06-04T22:51:50;8.70;;;3.10;;
18072;SDS011;9161;47.348;9.648;2023-06-04T22:56:52;4.73;;;3.30;;
18072;SDS011;9161;47.348;9.648;2023-06-04T23:01:54;6.90;;;3.23;;
18072;SDS011;9161;47.348;9.648;2023-06-04T23:06:58;3.83;;;2.87;;
18072;SDS011;9161;47.348;9.648;2023-06-04T23:12:00;5.23;;;3.17;;
18072;SDS011;9161;47.348;9.648;2023-06-04T23:17:02;6.43;;;3.33;;
18072;SDS011;9161;47.348;9.648;2023-06-04T23:22:06;6.30;;;3.57;;
18072;SDS011;9161;47.348;9.648;2023-06-04T23:27:08;7.17;;;3.47;;
18072;SDS011;9161;47.348;9.648;2023-06-04T23:32:10;6.23;;;3.87;;
18072;SDS011;9161;47.348;9.648;2023-06-04T23:37:14;6.07;;;3.30;;
18072;SDS011;9161;47.348;9.648;2023-06-04T23:42:16;4.77;;;3.20;;
18072;SDS011;9161;47.348;9.648;2023-06-04T23:47:20;7.50;;;3.13;;
18072;SDS011;9161;47.348;9.648;2023-06-04T23:52:23;5.77;;;3.10;;
18072;SDS011;9161;47.348;9.648;2023-06-04T23:57:25;8.77;;;3.40;;
